Time;durP1;ratioP1;P1;durP2;ratioP2;P2;SDS_P1;SDS_P2;PMS_P1;PMS_P2;Temp;Humidity;BMP_temperature;BMP_pressure;BME280_temperature;BME280_humidity;BME280_pressure;Samples;Min_cycle;Max_cycle;Signal;HPM_P1;HPM_P2
2022/08/04 00:00:07;;;;;;;6.01;5.35;;;;;;;21.70;76.03;100530.69;463488;114;922543;-79
2022/08/04 00:01:41;;;;;;;5.78;5.41;;;;;;;21.66;76.03;100530.45;463467;114;922569;-79
2022/08/04 00:03:00;;;;;;;5.74;5.36;;;;;;;21.64;76.08;100533.51;463280;114;922467;-78
2022/08/04 00:04:09;;;;;;;5.87;5.38;;;;;;;21.61;76.22;100534.07;463506;114;922956;-79
2022/08/04 00:05:16;;;;;;;6.19;5.66;;;;;;;21.59;76.33;100535.49;463299;114;923017;-78
2022/08/04 00:06:31;;;;;;;5.57;5.17;;;;;;;21.59;76.41;100538.27;459687;114;922998;-78
2022/08/04 00:07:53;;;;;;;7.77;5.66;;;;;;;21.58;76.38;100540.21;463501;114;923060;-79
2022/08/04 00:09:00;;;;;;;6.21;5.79;;;;;;;21.59;76.37;100541.04;463066;114;922593;-79
2022/08/04 00:10:05;;;;;;;5.78;5.38;;;;;;;21.57;76.42;100541.33;463447;114;923077;-79
2022/08/04 00:11:09;;;;;;;6.28;5.81;;;;;;;21.57;76.30;100544.09;463521;114;922524;-78
2022/08/04 00:12:16;;;;;;;6.10;5.34;;;;;;;21.57;76.28;100538.55;463133;114;922853;-79
2022/08/04 00:13:25;;;;;;;6.00;5.58;;;;;;;21.57;76.55;100541.33;463534;114;923019;-78
2022/08/04 00:14:31;;;;;;;5.66;5.26;;;;;;;21.58;76.48;100537.44;463402;114;930447;-78
2022/08/04 00:15:36;;;;;;;5.47;5.14;;;;;;;21.58;76.45;100534.66;463498;114;923033;-79
2022/08/04 00:16:41;;;;;;;5.53;5.13;;;;;;;21.59;76.54;100536.33;463562;113;922893;-79
2022/08/04 00:17:47;;;;;;;6.51;5.99;;;;;;;21.60;76.59;100535.21;463422;114;930496;-79
2022/08/04 00:18:54;;;;;;;5.54;5.17;;;;;;;21.62;76.60;100534.91;463398;114;922502;-79
2022/08/04 00:19:59;;;;;;;6.48;6.03;;;;;;;21.63;76.42;100536.56;463446;114;923284;-78
2022/08/04 00:21:06;;;;;;;6.20;5.70;;;;;;;21.63;76.48;100539.34;463466;114;922897;-79
2022/08/04 00:22:12;;;;;;;6.47;5.96;;;;;;;21.64;76.30;100541.00;463494;114;922916;-79
2022/08/04 00:23:17;;;;;;;6.29;5.79;;;;;;;21.64;76.31;100546.55;463492;114;922511;-78
2022/08/04 00:24:21;;;;;;;5.84;5.39;;;;;;;21.66;76.23;100544.33;463508;114;922500;-78
2022/08/04 00:25:24;;;;;;;6.54;6.04;;;;;;;21.68;76.44;100541.24;463506;114;922475;-78
2022/08/04 00:26:27;;;;;;;6.09;5.59;;;;;;;21.68;76.44;100541.24;463638;113;922995;-78
2022/08/04 00:27:31;;;;;;;6.09;5.69;;;;;;;21.68;76.19;100539.30;463705;114;923051;-77
2022/08/04 00:28:37;;;;;;;6.08;5.65;;;;;;;21.70;76.18;100547.34;463342;114;922552;-78
2022/08/04 00:29:40;;;;;;;5.90;5.49;;;;;;;21.70;76.13;100537.08;463555;114;922560;-78
2022/08/04 00:30:43;;;;;;;6.07;5.51;;;;;;;21.72;76.15;100539.57;464019;113;922474;-78
2022/08/04 00:31:47;;;;;;;6.55;5.41;;;;;;;21.72;76.13;100539.57;463669;114;923117;-79
2022/08/04 00:32:52;;;;;;;5.98;5.62;;;;;;;21.73;76.15;100542.03;462411;114;922806;-79
2022/08/04 00:33:56;;;;;;;6.75;6.14;;;;;;;21.74;75.96;100545.64;463613;114;922510;-78
2022/08/04 00:34:59;;;;;;;5.90;5.50;;;;;;;21.75;76.08;100550.08;463605;114;922838;-78
2022/08/04 00:36:02;;;;;;;6.87;6.11;;;;;;;21.76;75.94;100547.02;463578;114;922961;-78
2022/08/04 00:37:06;;;;;;;6.28;5.74;;;;;;;21.77;75.97;100548.69;463665;114;923242;-78
2022/08/04 00:38:10;;;;;;;6.58;5.94;;;;;;;21.77;75.89;100554.23;463598;114;922579;-78
2022/08/04 00:39:15;;;;;;;6.22;5.82;;;;;;;21.79;75.87;100551.98;463453;114;930529;-78
2022/08/04 00:40:24;;;;;;;6.07;5.68;;;;;;;21.80;75.93;100544.48;463340;114;930464;-78
2022/08/04 00:41:48;;;;;;;6.56;6.13;;;;;;;21.81;75.96;100543.37;463371;114;922530;-78
2022/08/04 00:42:59;;;;;;;6.34;5.77;;;;;;;21.83;75.96;100541.14;462602;114;922538;-79
2022/08/04 00:44:25;;;;;;;6.42;5.86;;;;;;;21.94;76.03;100539.94;476984;110;946869;-80
2022/08/04 00:45:50;;;;;;;6.00;5.49;;;;;;;21.83;75.99;100538.37;457269;116;922957;-79
2022/08/04 00:47:01;;;;;;;6.13;5.58;;;;;;;21.83;76.00;100536.39;456583;115;923026;-79
2022/08/04 00:48:13;;;;;;;6.88;6.31;;;;;;;21.84;75.91;100526.13;449360;118;922637;-79
2022/08/04 00:49:38;;;;;;;6.57;6.10;;;;;;;21.84;75.89;100534.45;449401;118;922665;-79
2022/08/04 00:50:46;;;;;;;6.51;5.93;;;;;;;21.85;75.81;100530.56;448735;117;922617;-79
2022/08/04 00:52:02;;;;;;;6.90;5.77;;;;;;;21.84;75.84;100532.50;448887;117;922911;-79
2022/08/04 00:53:20;;;;;;;6.96;6.45;;;;;;;21.85;75.88;100533.33;447131;118;922938;-79
2022/08/04 00:54:58;;;;;;;6.22;5.81;;;;;;;21.84;75.82;100532.50;449058;117;922994;-79
2022/08/04 00:56:04;;;;;;;6.57;6.04;;;;;;;21.85;75.79;100531.39;449438;118;922588;-79
2022/08/04 00:57:29;;;;;;;6.42;5.91;;;;;;;21.84;75.67;100531.67;449469;118;923059;-79
2022/08/04 00:58:40;;;;;;;6.27;5.84;;;;;;;21.83;75.66;100533.61;449376;117;922574;-79
2022/08/04 01:00:11;;;;;;;6.16;5.74;;;;;;;21.81;75.67;100521.16;449371;117;922873;-79
2022/08/04 01:01:34;;;;;;;6.93;6.41;;;;;;;21.81;75.67;100537.81;449249;118;922578;-79
2022/08/04 01:03:03;;;;;;;6.85;6.32;;;;;;;21.80;75.73;100534.21;448844;117;930584;-79
2022/08/04 01:04:30;;;;;;;6.87;6.22;;;;;;;21.80;75.70;100534.21;429727;123;923448;-80
2022/08/04 01:05:52;;;;;;;6.56;6.03;;;;;;;21.80;75.79;100536.16;448647;117;923026;-79
2022/08/04 01:07:15;;;;;;;6.16;5.71;;;;;;;21.78;75.69;100532.83;449441;118;922575;-79
2022/08/04 01:08:25;;;;;;;7.08;5.99;;;;;;;21.75;75.77;100534.25;435625;121;922813;-80
2022/08/04 01:09:49;;;;;;;5.84;5.43;;;;;;;21.76;75.73;100535.92;448153;117;922545;-79
2022/08/04 01:11:04;;;;;;;6.96;6.51;;;;;;;21.74;75.73;100537.31;449416;118;922813;-79
2022/08/04 01:12:14;;;;;;;7.13;6.64;;;;;;;21.73;75.69;100539.25;449099;117;922989;-79
2022/08/04 01:13:46;;;;;;;6.26;5.69;;;;;;;21.74;75.74;100537.31;447277;118;923046;-79
2022/08/04 01:15:05;;;;;;;6.03;5.57;;;;;;;21.73;75.79;100542.03;450930;116;922563;-79
2022/08/04 01:16:12;;;;;;;6.65;6.16;;;;;;;21.72;75.94;100532.08;457126;116;923021;-79
2022/08/04 01:17:37;;;;;;;6.91;6.41;;;;;;;21.73;75.87;100532.88;457135;116;922565;-80
2022/08/04 01:19:01;;;;;;;6.49;5.95;;;;;;;21.74;75.86;100537.31;457142;116;922732;-79
2022/08/04 01:20:09;;;;;;;6.69;6.27;;;;;;;21.73;75.80;100532.88;457124;116;923017;-80
2022/08/04 01:21:49;;;;;;;6.63;6.21;;;;;;;21.74;75.80;100540.09;457157;116;922554;-79
2022/08/04 01:23:15;;;;;;;7.18;6.64;;;;;;;21.74;75.87;100538.14;457169;116;922553;-79
2022/08/04 01:24:28;;;;;;;7.07;6.44;;;;;;;21.73;75.92;100536.48;457154;116;922733;-79
2022/08/04 01:26:08;;;;;;;7.97;7.39;;;;;;;21.75;75.82;100542.58;457157;116;922526;-80
2022/08/04 01:27:19;;;;;;;7.18;6.63;;;;;;;21.76;75.81;100541.47;453963;116;923368;-79
2022/08/04 01:28:47;;;;;;;7.32;6.72;;;;;;;21.73;75.74;100547.58;457138;116;922541;-79
2022/08/04 01:29:55;;;;;;;6.58;6.15;;;;;;;21.73;75.75;100546.75;455562;116;922580;-79
2022/08/04 01:31:08;;;;;;;7.37;6.87;;;;;;;21.72;75.76;100548.72;455976;116;922602;-79
2022/08/04 01:32:21;;;;;;;7.52;6.85;;;;;;;21.71;75.77;100549.84;457061;115;922560;-79
2022/08/04 01:33:28;;;;;;;7.11;6.63;;;;;;;21.70;75.77;100548.17;457135;113;923121;-79
2022/08/04 01:34:41;;;;;;;6.59;6.17;;;;;;;21.71;75.70;100552.61;441118;118;922563;-78
2022/08/04 01:35:53;;;;;;;7.45;6.74;;;;;;;21.71;75.71;100546.23;449419;118;923288;-78
2022/08/04 01:36:59;;;;;;;7.65;7.05;;;;;;;21.72;75.78;100545.12;449023;117;922589;-78
2022/08/04 01:38:18;;;;;;;7.54;6.82;;;;;;;21.71;75.74;100549.84;426267;122;923301;-78
2022/08/04 01:39:41;;;;;;;7.66;7.04;;;;;;;21.83;75.70;100550.27;476814;110;946975;-77
2022/08/04 01:40:45;;;;;;;7.74;7.08;;;;;;;21.71;75.69;100549.84;458127;115;923203;-79
2022/08/04 01:41:50;;;;;;;6.83;6.35;;;;;;;21.71;75.69;100543.45;458177;115;922686;-78
2022/08/04 01:42:58;;;;;;;7.44;6.98;;;;;;;21.71;75.64;100547.06;457287;115;922955;-77
2022/08/04 01:44:03;;;;;;;7.39;6.74;;;;;;;21.70;75.63;100550.12;457253;116;922553;-80
2022/08/04 01:45:09;;;;;;;7.60;7.05;;;;;;;21.69;75.67;100542.91;457279;114;923046;-79
2022/08/04 01:46:15;;;;;;;8.05;7.39;;;;;;;21.69;75.71;100542.91;457216;116;930510;-79
2022/08/04 01:47:20;;;;;;;8.11;7.34;;;;;;;21.69;75.72;100542.91;457256;116;922573;-79
2022/08/04 01:48:25;;;;;;;7.82;7.19;;;;;;;21.69;75.74;100538.19;457306;116;923085;-79
2022/08/04 01:49:30;;;;;;;10.88;7.43;;;;;;;21.69;75.78;100535.41;459273;114;923075;-78
2022/08/04 01:50:35;;;;;;;7.65;7.08;;;;;;;21.68;75.68;100533.75;462522;114;922466;-78
2022/08/04 01:51:39;;;;;;;8.22;7.47;;;;;;;21.69;75.76;100537.35;462679;114;923034;-80
2022/08/04 01:52:44;;;;;;;8.21;7.51;;;;;;;21.68;75.73;100536.52;462641;114;930513;-79
2022/08/04 01:53:48;;;;;;;7.56;7.08;;;;;;;;;;462459;114;930501;-79
2022/08/04 01:54:52;;;;;;;7.64;7.07;;;;;;;21.68;75.82;100536.52;462757;114;922514;-80
2022/08/04 01:55:56;;;;;;;7.77;7.16;;;;;;;21.69;75.80;100546.52;462735;114;930518;-79
2022/08/04 01:57:03;;;;;;;7.51;6.94;;;;;;;21.68;75.77;100544.84;462600;114;922595;-79
2022/08/04 01:58:09;;;;;;;8.76;7.72;;;;;;;21.69;75.86;100545.68;459817;114;922557;-79
2022/08/04 01:59:16;;;;;;;8.20;7.54;;;;;;;21.68;75.65;100550.40;462576;114;922549;-79
2022/08/04 02:00:22;;;;;;;7.93;7.36;;;;;;;21.68;75.67;100550.40;462486;114;930637;-79
2022/08/04 02:01:25;;;;;;;7.67;7.14;;;;;;;21.67;75.58;100557.06;462643;114;922986;-79
2022/08/04 02:02:28;;;;;;;7.24;6.67;;;;;;;21.67;75.51;100547.94;462837;114;923086;-79
2022/08/04 02:03:32;;;;;;;7.61;6.99;;;;;;;21.66;75.51;100544.33;462752;114;923072;-79
2022/08/04 02:04:37;;;;;;;8.44;7.94;;;;;;;21.67;75.54;100550.70;462458;114;930604;-79
2022/08/04 02:05:42;;;;;;;7.65;7.15;;;;;;;21.64;75.63;100550.16;462779;114;922599;-80
2022/08/04 02:07:09;;;;;;;8.48;7.88;;;;;;;21.65;75.68;100556.54;462493;114;922903;-79
2022/08/04 02:08:22;;;;;;;8.64;7.64;;;;;;;21.64;75.71;100552.10;462583;114;922572;-79
2022/08/04 02:09:48;;;;;;;8.59;7.99;;;;;;;21.65;75.70;100559.31;462549;113;923021;-79
2022/08/04 02:10:57;;;;;;;7.98;7.38;;;;;;;21.65;75.80;100559.31;462551;114;922567;-79
2022/08/04 02:12:03;;;;;;;8.12;7.59;;;;;;;21.65;75.82;100562.09;462192;114;922554;-79
2022/08/04 02:13:19;;;;;;;7.76;7.18;;;;;;;21.64;75.83;100558.48;462630;114;923018;-80
2022/08/04 02:14:39;;;;;;;8.17;7.44;;;;;;;21.66;75.87;100557.38;462579;114;922617;-79
2022/08/04 02:15:46;;;;;;;8.23;7.68;;;;;;;21.66;75.79;100560.98;449428;118;923092;-79
2022/08/04 02:16:51;;;;;;;7.92;7.29;;;;;;;21.64;75.71;100563.20;449497;118;922596;-80
2022/08/04 02:18:12;;;;;;;8.32;7.77;;;;;;;21.63;75.69;100562.37;449441;118;922777;-79
2022/08/04 02:19:25;;;;;;;8.17;7.67;;;;;;;;;;449418;118;923110;-80
2022/08/04 02:20:36;;;;;;;8.49;7.89;;;;;;;21.63;75.61;100569.86;449451;118;923082;-79
2022/08/04 02:21:40;;;;;;;7.88;7.30;;;;;;;21.62;75.57;100563.48;449458;118;922588;-79
2022/08/04 02:23:00;;;;;;;8.36;7.62;;;;;;;21.62;75.56;100568.20;449462;118;922627;-79
2022/08/04 02:24:09;;;;;;;7.73;7.21;;;;;;;21.61;75.56;100569.34;442730;119;923144;-80
2022/08/04 02:25:16;;;;;;;8.47;7.88;;;;;;;21.59;75.58;100569.63;449475;116;922548;-79
2022/08/04 02:26:20;;;;;;;8.09;7.38;;;;;;;21.59;75.59;100568.79;449475;118;922524;-79
2022/08/04 02:27:28;;;;;;;7.81;7.28;;;;;;;21.59;75.63;100563.23;449458;118;922503;-78
2022/08/04 02:28:46;;;;;;;10.03;8.08;;;;;;;21.59;75.61;100563.23;449404;118;922472;-80
2022/08/04 02:29:57;;;;;;;8.33;7.73;;;;;;;21.59;75.62;100568.79;453655;115;922926;-79
2022/08/04 02:31:31;;;;;;;8.09;7.44;;;;;;;21.61;75.63;100566.56;457361;115;922596;-79
2022/08/04 02:32:40;;;;;;;8.80;8.22;;;;;;;21.61;75.62;100563.80;457254;116;923064;-79
2022/08/04 02:33:46;;;;;;;8.42;7.88;;;;;;;21.59;75.66;100561.30;458797;113;923053;-79
2022/08/04 02:34:59;;;;;;;8.86;8.16;;;;;;;21.60;75.66;100560.19;466243;113;923018;-79
2022/08/04 02:36:04;;;;;;;8.39;7.65;;;;;;;21.59;75.61;100555.75;466155;113;922519;-79
2022/08/04 02:37:09;;;;;;;8.18;7.59;;;;;;;21.59;75.59;100557.69;466419;113;922579;-79
2022/08/04 02:38:43;;;;;;;8.21;7.71;;;;;;;21.59;75.51;100557.69;465332;113;922960;-79
2022/08/04 02:39:48;;;;;;;7.97;7.53;;;;;;;21.58;75.44;100561.58;461254;114;923045;-78
2022/08/04 02:40:55;;;;;;;8.58;7.93;;;;;;;21.57;75.46;100562.69;457374;115;922993;-79
2022/08/04 02:42:03;;;;;;;8.31;7.79;;;;;;;21.57;75.67;100562.69;457181;115;922906;-79
2022/08/04 02:43:08;;;;;;;8.48;7.98;;;;;;;21.56;75.80;100556.31;457375;116;922615;-79
2022/08/04 02:44:13;;;;;;;9.03;8.40;;;;;;;21.58;75.97;100564.35;457343;116;923509;-79
2022/08/04 02:45:19;;;;;;;9.19;8.42;;;;;;;21.60;75.99;100560.19;457394;114;922784;-78
2022/08/04 02:46:23;;;;;;;8.62;8.13;;;;;;;21.62;76.06;100557.09;457419;116;922611;-79
2022/08/04 02:47:27;;;;;;;8.54;7.96;;;;;;;21.64;76.08;100558.48;457550;115;922601;-79
2022/08/04 02:48:35;;;;;;;8.98;7.95;;;;;;;21.67;76.02;100559.84;454280;116;922549;-79
2022/08/04 02:49:40;;;;;;;8.64;7.99;;;;;;;21.69;76.05;100565.94;458877;115;922558;-79
2022/08/04 02:50:44;;;;;;;9.22;8.37;;;;;;;21.70;76.03;100564.83;460137;115;922604;-79
2022/08/04 02:51:53;;;;;;;8.62;8.06;;;;;;;21.74;76.01;100571.45;460211;115;922621;-79
2022/08/04 02:52:58;;;;;;;8.64;8.07;;;;;;;21.75;75.83;100566.73;460129;115;922505;-79
2022/08/04 02:54:04;;;;;;;9.27;8.63;;;;;;;21.77;75.69;100565.34;460119;115;922891;-79
2022/08/04 02:55:10;;;;;;;8.98;8.42;;;;;;;21.78;75.67;100564.19;460088;115;922582;-79
2022/08/04 02:56:17;;;;;;;9.10;8.50;;;;;;;21.77;75.69;100568.11;460078;115;922523;-79
2022/08/04 02:57:26;;;;;;;9.69;9.03;;;;;;;21.77;75.56;100572.83;460154;115;922738;-80
2022/08/04 02:58:33;;;;;;;9.21;8.52;;;;;;;21.77;75.57;100570.89;460187;113;922603;-79
2022/08/04 02:59:48;;;;;;;8.69;8.12;;;;;;;21.77;75.63;100565.34;460124;115;923162;-79
2022/08/04 03:00:51;;;;;;;9.35;8.56;;;;;;;21.79;75.75;100565.02;449523;113;923249;-79
2022/08/04 03:01:56;;;;;;;9.24;8.47;;;;;;;21.81;75.82;100569.18;460334;115;922624;-79
2022/08/04 03:03:22;;;;;;;9.30;8.70;;;;;;;21.82;75.80;100564.46;460155;115;922510;-80
2022/08/04 03:04:35;;;;;;;8.51;7.81;;;;;;;21.83;75.75;100566.13;460244;113;922600;-80
2022/08/04 03:06:01;;;;;;;9.29;8.46;;;;;;;21.83;75.79;100569.70;460119;115;923206;-79
2022/08/04 03:07:35;;;;;;;8.62;8.03;;;;;;;21.84;75.68;100576.92;460132;115;922689;-79
2022/08/04 03:09:01;;;;;;;8.58;7.98;;;;;;;21.84;75.68;100570.53;460146;115;922898;-79
2022/08/04 03:10:17;;;;;;;8.93;8.32;;;;;;;21.84;75.69;100576.92;460530;113;922646;-79
2022/08/04 03:11:49;;;;;;;8.94;8.24;;;;;;;21.85;75.70;100574.97;460194;115;922720;-79
2022/08/04 03:13:10;;;;;;;9.12;8.44;;;;;;;21.86;75.68;100569.14;460180;115;922521;-79
2022/08/04 03:14:44;;;;;;;8.94;8.23;;;;;;;21.86;75.55;100569.14;462613;113;923047;-79
2022/08/04 03:15:56;;;;;;;9.47;8.87;;;;;;;21.87;75.50;100565.25;453784;115;922839;-80
2022/08/04 03:17:22;;;;;;;8.59;7.89;;;;;;;21.87;75.53;100565.25;452402;117;922778;-79
2022/08/04 03:18:46;;;;;;;8.86;8.26;;;;;;;21.89;75.61;100567.72;451932;117;922994;-79
2022/08/04 03:20:13;;;;;;;9.57;8.14;;;;;;;21.91;75.63;100568.27;452610;115;923109;-79
2022/08/04 03:21:55;;;;;;;9.08;8.38;;;;;;;21.91;75.64;100559.94;452677;117;923094;-80
2022/08/04 03:23:10;;;;;;;8.36;7.85;;;;;;;21.91;75.52;100571.04;452686;117;923341;-79
2022/08/04 03:24:31;;;;;;;9.37;8.82;;;;;;;21.91;75.60;100566.31;452651;117;922531;-79
2022/08/04 03:25:43;;;;;;;9.13;8.36;;;;;;;21.93;75.64;100564.09;452640;117;923031;-80
2022/08/04 03:26:58;;;;;;;9.21;8.55;;;;;;;21.94;75.65;100576.86;450088;117;922580;-78
2022/08/04 03:28:13;;;;;;;9.05;8.28;;;;;;;21.95;75.65;100572.97;452678;117;922751;-77
2022/08/04 03:29:47;;;;;;;8.46;7.89;;;;;;;21.98;75.55;100568.80;450179;117;922564;-76
2022/08/04 03:30:59;;;;;;;8.89;8.20;;;;;;;21.99;75.50;100571.30;453711;116;922613;-77
2022/08/04 03:32:09;;;;;;;9.71;8.91;;;;;;;22.01;75.50;100577.36;456445;115;923032;-77
2022/08/04 03:33:21;;;;;;;9.53;8.77;;;;;;;22.02;75.55;100576.25;455306;116;923136;-77
2022/08/04 03:34:34;;;;;;;10.34;9.33;;;;;;;22.04;75.54;100571.25;449844;114;922589;-80
2022/08/04 03:35:56;;;;;;;9.33;8.04;;;;;;;22.07;75.48;100575.38;449664;116;922944;-80
2022/08/04 03:37:23;;;;;;;10.16;9.41;;;;;;;22.09;75.37;100581.48;455277;116;922504;-80
2022/08/04 03:38:50;;;;;;;8.81;7.93;;;;;;;22.12;75.42;100582.83;457226;116;922558;-77
2022/08/04 03:40:24;;;;;;;9.70;9.04;;;;;;;22.13;75.28;100587.27;456347;114;922537;-77
2022/08/04 03:41:48;;;;;;;9.86;8.99;;;;;;;22.15;75.22;100573.93;456615;116;923023;-77
2022/08/04 03:43:12;;;;;;;9.01;8.41;;;;;;;22.15;75.19;100585.87;453854;116;923160;-77
2022/08/04 03:44:39;;;;;;;11.02;8.59;;;;;;;22.15;75.15;100582.27;453871;116;922573;-79
2022/08/04 03:45:45;;;;;;;9.59;8.89;;;;;;;22.14;75.22;100573.09;457193;116;922656;-77
2022/08/04 03:47:10;;;;;;;9.14;8.54;;;;;;;22.14;75.24;100578.66;456183;115;922680;-77
2022/08/04 03:48:35;;;;;;;9.12;8.48;;;;;;;22.15;75.22;100576.70;457143;116;922838;-78
2022/08/04 03:49:47;;;;;;;9.14;8.42;;;;;;;22.15;75.20;100583.09;456223;115;922598;-78
2022/08/04 03:54:16;;;;;;;10.51;9.63;;;;;;;22.17;75.54;100578.05;455444;116;922675;-78
2022/08/04 03:55:31;;;;;;;9.66;8.87;;;;;;;22.20;75.55;100574.71;455450;116;923157;-78
2022/08/04 03:56:41;;;;;;;10.22;9.44;;;;;;;22.21;75.62;100583.88;429082;123;923222;-78
2022/08/04 03:58:15;;;;;;;10.01;9.24;;;;;;;22.34;75.56;100585.95;477069;110;947061;-79
2022/08/04 03:59:50;;;;;;;10.17;9.42;;;;;;;22.22;75.47;100580.78;465382;113;922692;-78
2022/08/04 04:01:22;;;;;;;10.09;9.37;;;;;;;22.23;75.38;100588.00;456773;116;922404;-78
2022/08/04 04:02:41;;;;;;;9.59;8.88;;;;;;;22.23;75.42;100589.95;456839;116;923010;-78
2022/08/04 04:04:06;;;;;;;10.14;9.34;;;;;;;22.22;75.42;100594.67;456826;116;922537;-78
2022/08/04 04:05:36;;;;;;;10.35;9.62;;;;;;;22.22;75.51;100599.42;443747;119;922723;-78
2022/08/04 04:07:05;;;;;;;9.87;9.22;;;;;;;22.22;75.49;100600.23;453594;116;922776;-78
2022/08/04 04:08:14;;;;;;;9.73;9.08;;;;;;;22.21;75.46;100597.77;456824;116;922893;-78
2022/08/04 04:09:35;;;;;;;11.05;10.25;;;;;;;22.20;75.50;100602.48;456708;115;922535;-79
2022/08/04 04:10:58;;;;;;;11.32;10.52;;;;;;;22.20;75.56;100602.48;453908;116;922666;-78
2022/08/04 04:12:17;;;;;;;11.08;10.30;;;;;;;22.21;75.56;100597.77;438714;120;930316;-78
2022/08/04 04:13:42;;;;;;;11.52;10.51;;;;;;;22.34;75.60;100605.40;477083;110;947100;-78
2022/08/04 04:15:05;;;;;;;10.80;10.03;;;;;;;22.23;75.66;100596.33;463129;114;922558;-79
2022/08/04 04:16:37;;;;;;;11.46;10.33;;;;;;;22.26;75.65;100604.10;456669;115;922753;-78
2022/08/04 04:17:45;;;;;;;11.16;10.32;;;;;;;22.27;75.59;100614.09;458241;115;922625;-79
2022/08/04 04:19:11;;;;;;;11.25;10.58;;;;;;;22.30;75.54;100602.39;457125;115;923469;-79
2022/08/04 04:20:35;;;;;;;11.44;10.58;;;;;;;22.31;75.48;100615.16;458262;115;922590;-78
2022/08/04 04:22:15;;;;;;;10.96;10.18;;;;;;;22.33;75.36;100606.52;458207;115;922558;-79
2022/08/04 04:23:28;;;;;;;10.54;9.82;;;;;;;22.34;75.36;100610.95;458225;115;922662;-78
2022/08/04 04:24:55;;;;;;;10.94;10.25;;;;;;;22.36;75.53;100617.89;456574;115;922472;-78
2022/08/04 04:26:31;;;;;;;10.84;10.15;;;;;;;22.37;75.52;100608.45;458218;115;923048;-78
2022/08/04 04:27:44;;;;;;;10.51;9.86;;;;;;;22.40;75.45;100604.23;458221;115;922637;-78
2022/08/04 04:28:56;;;;;;;10.47;9.50;;;;;;;22.43;75.38;100612.00;457361;115;922655;-78
2022/08/04 04:30:07;;;;;;;10.84;9.76;;;;;;;22.44;75.44;100613.63;455106;115;922915;-78
2022/08/04 04:31:19;;;;;;;10.91;10.03;;;;;;;22.45;75.49;100612.52;456417;116;922881;-79
2022/08/04 04:32:43;;;;;;;10.93;10.12;;;;;;;22.47;75.57;100610.28;450017;117;922635;-79
2022/08/04 04:33:58;;;;;;;11.10;10.46;;;;;;;22.49;75.44;100608.05;456131;113;922872;-79
2022/08/04 04:35:24;;;;;;;11.03;10.23;;;;;;;22.52;75.39;100610.23;465595;113;922580;-79
2022/08/04 04:36:31;;;;;;;10.71;9.92;;;;;;;22.54;75.37;100605.22;466396;113;922692;-79
2022/08/04 04:37:46;;;;;;;10.16;9.50;;;;;;;22.57;75.28;100607.40;465053;113;922512;-78
2022/08/04 04:39:17;;;;;;;10.78;10.03;;;;;;;22.58;75.22;100597.95;466383;113;922590;-78
2022/08/04 04:40:56;;;;;;;10.11;9.34;;;;;;;22.61;75.12;100613.19;466375;113;922555;-78
2022/08/04 04:42:33;;;;;;;10.29;9.59;;;;;;;22.61;75.09;100611.23;466375;113;922587;-77
2022/08/04 04:44:07;;;;;;;10.95;10.21;;;;;;;22.62;75.02;100612.07;465906;113;922620;-78
2022/08/04 04:45:13;;;;;;;11.94;10.94;;;;;;;22.61;75.00;100610.41;465518;113;922521;-79
2022/08/04 04:46:35;;;;;;;11.19;10.44;;;;;;;22.59;75.00;100610.73;466140;113;922449;-77
2022/08/04 04:47:45;;;;;;;10.97;10.27;;;;;;;22.60;75.04;100612.39;466287;113;922685;-77
2022/08/04 04:49:17;;;;;;;10.87;10.14;;;;;;;22.60;74.99;100612.39;466012;113;922842;-78
2022/08/04 04:50:40;;;;;;;10.76;10.03;;;;;;;22.60;74.95;100612.39;449565;116;923066;-78
2022/08/04 04:51:53;;;;;;;10.87;10.01;;;;;;;22.61;74.98;100614.02;449420;118;922594;-78
2022/08/04 04:53:06;;;;;;;11.15;10.24;;;;;;;22.61;74.99;100613.19;449060;117;922604;-78
2022/08/04 04:54:24;;;;;;;11.53;10.72;;;;;;;22.62;75.01;100617.63;449396;117;923135;-77
2022/08/04 04:55:31;;;;;;;11.31;10.47;;;;;;;22.62;75.00;100624.02;449505;116;922643;-79
2022/08/04 04:56:46;;;;;;;10.79;9.96;;;;;;;22.63;75.11;100614.56;448371;117;922585;-78
2022/08/04 04:57:52;;;;;;;11.17;10.24;;;;;;;22.65;75.13;100617.89;449438;118;922728;-78
2022/08/04 04:59:01;;;;;;;12.08;11.12;;;;;;;22.66;75.21;100622.30;449465;118;922701;-78
2022/08/04 05:00:11;;;;;;;11.03;10.06;;;;;;;22.69;75.23;100627.29;449481;116;922684;-78
2022/08/04 05:01:22;;;;;;;;;;;;;;;22.71;75.32;100618.66;453190;118;922123;-79
2022/08/04 05:02:38;;;;;;;11.94;11.03;;;;;;;22.73;75.34;100614.48;449424;118;922682;-77
2022/08/04 05:03:59;;;;;;;11.64;10.76;;;;;;;22.75;75.36;100625.31;449451;118;923014;-79
2022/08/04 05:05:24;;;;;;;12.94;10.44;;;;;;;22.77;75.32;100617.52;448636;116;922670;-79
2022/08/04 05:06:53;;;;;;;10.90;10.16;;;;;;;22.78;75.37;100619.98;449477;118;923156;-78
2022/08/04 05:08:22;;;;;;;11.69;10.99;;;;;;;22.81;75.33;100615.80;449751;118;922867;-80
2022/08/04 05:09:33;;;;;;;11.70;10.92;;;;;;;22.83;75.35;100614.36;446263;118;922531;-79
2022/08/04 05:10:52;;;;;;;10.89;10.22;;;;;;;22.86;75.48;100622.12;448984;118;923444;-78
2022/08/04 05:12:33;;;;;;;11.02;10.25;;;;;;;22.91;75.37;100617.63;449145;117;922645;-79
2022/08/04 05:14:01;;;;;;;10.90;10.02;;;;;;;22.95;75.35;100618.69;445982;118;930164;-79
2022/08/04 05:15:09;;;;;;;11.73;10.79;;;;;;;23.00;75.41;100621.41;450574;115;922731;-81
2022/08/04 05:16:16;;;;;;;12.53;11.63;;;;;;;23.05;75.29;100624.95;458233;115;922586;-80
2022/08/04 05:17:39;;;;;;;11.47;10.69;;;;;;;23.09;75.32;100637.16;458202;115;922597;-78
2022/08/04 05:18:45;;;;;;;11.81;11.01;;;;;;;23.13;75.24;100631.83;458213;115;923181;-79
2022/08/04 05:19:59;;;;;;;12.52;11.53;;;;;;;23.16;75.15;100632.05;458251;115;923074;-79
2022/08/04 05:21:06;;;;;;;11.23;10.44;;;;;;;23.21;75.12;100633.97;458251;115;922558;-79
2022/08/04 05:22:13;;;;;;;11.78;10.87;;;;;;;23.25;75.10;100627.50;457490;115;922402;-78
2022/08/04 05:23:29;;;;;;;11.34;10.48;;;;;;;23.30;74.99;100629.38;457992;115;922607;-79
2022/08/04 05:24:36;;;;;;;12.16;11.36;;;;;;;23.34;74.94;100630.44;458195;115;922594;-78
2022/08/04 05:26:01;;;;;;;12.13;11.21;;;;;;;23.39;74.92;100633.15;458160;115;922618;-79
2022/08/04 05:27:08;;;;;;;12.27;11.43;;;;;;;23.43;74.91;100636.98;458192;115;923035;-79
2022/08/04 05:28:18;;;;;;;12.16;11.26;;;;;;;23.47;74.87;100626.97;458148;115;923036;-79
2022/08/04 05:29:34;;;;;;;11.91;11.04;;;;;;;23.51;74.85;100638.31;460832;115;922676;-79
2022/08/04 05:30:47;;;;;;;11.29;10.46;;;;;;;23.54;74.78;100643.30;458509;115;922825;-79
2022/08/04 05:31:50;;;;;;;11.98;10.88;;;;;;;23.59;74.75;100644.06;456968;115;922864;-79
2022/08/04 05:33:02;;;;;;;11.97;11.11;;;;;;;23.62;74.70;100642.61;457141;116;922643;-79
2022/08/04 05:34:12;;;;;;;11.63;10.84;;;;;;;23.64;74.64;100643.98;461890;113;922768;-79
2022/08/04 05:35:22;;;;;;;11.83;10.91;;;;;;;23.69;74.64;100643.08;466242;113;922624;-79
2022/08/04 05:36:33;;;;;;;11.41;10.46;;;;;;;23.73;74.49;100637.73;463141;113;922509;-79
2022/08/04 05:37:40;;;;;;;12.54;11.29;;;;;;;23.76;74.43;100639.92;465130;113;922568;-78
2022/08/04 05:38:45;;;;;;;11.96;10.93;;;;;;;23.79;74.40;100642.92;466233;113;922609;-79
2022/08/04 05:39:52;;;;;;;12.25;11.09;;;;;;;23.82;74.34;100647.08;466390;113;922575;-78
2022/08/04 05:40:56;;;;;;;11.69;10.78;;;;;;;23.84;74.23;100642.02;466110;113;922540;-79
2022/08/04 05:42:01;;;;;;;11.09;10.23;;;;;;;23.85;74.04;100641.72;466372;113;922808;-79
2022/08/04 05:43:06;;;;;;;11.31;10.51;;;;;;;23.88;73.99;100640.27;466100;113;930503;-78
2022/08/04 05:44:09;;;;;;;11.59;10.80;;;;;;;23.90;73.88;100640.81;466434;113;922558;-79